Wed, 2019 July 17. @ 18:50 (Europe/Berlin) | Change timezone

Search

Search

Find competitions and teams quickly

Compare

Compare

Click on this h2h icon anywhere to compare teams and see statistics

Fixtures

Fixtures

View today's matches, tomorrow's fixtures, yesterday's results or fixtures on any specific date by using the calendar


Fixtures - 2018.09.30

Group by: leagues | time
Time Home Score Away 1 X 2 H2H
 Hockey Austria Eishockey Liga 2018/2019
16:00 Salzburg 9 : 0 Feh 1.41 6.00 4.92
17:30 CE Wien 4 : 3 Villach 1.42 5.83 4.87
17:30 Medveščak Zagreb KHL 2 : 4 Graz 2.22 4.60 2.41
17:30 Linz 3 : 1 Znojmo 1.58 5.23 3.93
17:30 Dornbirn 0 : 3 Klagenfurt 2.33 4.33 2.38
 Hockey CHL Kontinental Hockey League 2018/2019
16:00 Dynamo Minsk 1 : 2 Omsk 3.92 4.37 1.73
16:00 Kazaň 4 : 2 Admiral Vladivostok 1.41 5.35 6.08
16:00 Vitiaz Chekhov 3 : 4 Novosibirsk 1.75 4.55 3.72
16:00 Nižnyj Novgorod 4 : 3 Chabarovsk Amur 1.66 4.37 4.37
 Handball CL Champions League M 2018/2019
14:00 Zaporozhye ZTR 31 : 32 Szeged Pick SC 3.58 10.50 1.42
17:00 Nantes HBC 35 : 27 Skjern 1.19 13.75 6.19
17:00 Celje Pivovarna Lasko 23 : 20 Flensburg-Handewitt 6.19 13.25 1.19
17:00 Metalurg Skopje 24 : 29 Prešov 6.06 12.00 1.20
18:10 Elverum 30 : 25 Caja Espana Ademar 2.37 8.38 1.86
19:00 Montpellier HB 26 : 29 Kielce Vive KS 1.79 8.63 2.48
 Hockey Czech Republic Extraleague 2018/2019
15:00 Sparta Praha 4 : 1 Chomutov 1.41 5.92 5.17
16:00 Liberec 8 : 3 Mladá Boleslav 1.63 4.60 4.15
16:30 Plzeň 2 : 3 ot Pardubice 1.49 5.32 4.83
17:00 Hradec Králové 4 : 2 Karlovy Vary 1.43 5.32 5.32
17:30 Litvínov 2 : 1 Olomouc 1.78 4.57 3.47
18:20 Kometa Brno 2 : 1 Třinec 1.94 4.17 3.17
 Handball Czech Republic Extraleague M 2018/2019
10:30 Karviná Baník 27 : 23 Nov 1.23 11.00 5.08
17:00 Dukla Praha 22 : 29 Frýdek- Místek 1.10 15.50 8.00
 Basketball Czech Republic National League M 2018/2019
17:30 USK Praha 70 : 81 Ústí nad Labem 1.75 - 1.95
18:00 Děčín 99 : 79 Hradec Kr 1.25 - 3.30
18:00 Svitavy 73 : 67 Brno 1.17 - 4.42
18:00 Opava 80 : 71 Kolín 1.15 - 4.70
18:00 Olomoucko BK 95 : 70 Ostrava NH 1.21 - 3.83
 Basketball Denmark 1st League M 2018/2019
14:00 EBAA Aarhus 64 : 82 Horsens IC 15.00 - 1.01
 Hockey Denmark SuperBest-ligaen 2018/2019
15:00 Rungsted 4 : 2 Aalborg 2.13 4.44 2.60
15:00 Totempo Hvidovre HVIK 4 : 3 ot(p) Sonderjylland IK 3.53 4.92 1.68
15:00 Herlev 2 : 1 Fredrikshavn 3.40 4.88 1.72
17:00 Esbjerg 4 : 1 Rodovre Kobenhavn 1.88 4.50 3.12
 Soccer England Premiership 2018/2019
17:00 Cardiff 1 : 2 Burnley 2.46 3.05 3.26
 Soccer France Ligue 1 2018/2019
15:00 Rennes 1 : 1 Toulouse 1.87 3.56 4.28
17:00 Montpellier 3 : 0 Nimes 2.21 3.28 3.80
21:00 Lille 3 : 0 Ol. Marseille 2.89 3.50 2.41
 Basketball France Pro A M 2018/2019
18:30 Strasbourg IG 65 : 70 Pau Orthez 1.19 21.00 5.20
 Hockey Germany 2. Bundesliga 2018/2019
17:00 Bietigheim 3 : 8 Kassel 1.85 4.88 2.90
17:00 Lausitzer Füchse 1 : 0 Dresden 2.39 4.78 2.15
18:30 Kaufbeuren 1 : 0 Freiburg 1.54 5.33 3.93
18:30 Frankfurt 5 : 3 Heilbronn 1.50 5.75 4.00
18:30 Tölzer Löwen 3 : 4 ot(p) Bad Nauheim 2.37 4.83 2.18
18:30 Deggendorfer 6 : 5 ot Crimmitschau 2.27 4.53 2.33
18:30 Ravensburg 7 : 1 Bayreuth ESV 1.46 6.17 4.13
 Basketball Germany BBL M 2018/2019
15:00 Avitos Giessen 91 : 84 Mitteldeutscher BC 1.29 18.00 4.00
18:00 Göttingen BG 74 79 : 86 Telecom Baskets Bonn 2.80 16.00 1.52
 Soccer Germany Bundesliga 2018/2019
15:30 Frankfurt Eintracht 4 : 1 Hannover 96 1.92 3.61 3.93
18:00 Augsburg FC 4 : 1 Freiburg 1.90 3.56 4.01
 Handball Germany Bundesliga M 2018/2019
13:30 Wetzlar 25 : 26 Rhein-Neckar-Löwen 17.50 22.25 1.04
16:00 Frisch Auf Göppingen 20 : 24 Lemgo 1.31 11.19 4.66
16:00 Bergischer HC 26 : 23 Bietigheim-Metterzimmern 1.17 14.00 7.44
16:00 Kiel 27 : 21 Erlangen HC 1.01 33.00 30.25
16:00 Minden 38 : 25 Stuttgart TVB 1.60 8.88 3.03
 Hockey Germany DEL 2018/2019
14:00 München 2 : 1 ot Köln 1.71 4.72 3.60
14:00 Krefeld 4 : 3 Wolfsburg 2.13 4.60 2.58
14:00 Bremerhaven 2 : 1 ot Mannheim 3.00 4.88 1.87
16:30 Schwenningen 0 : 3 Augsburg 2.43 4.25 2.35
16:30 Iserlohn Roosters 4 : 2 Ingolstadt ERC 2.33 4.53 2.35
17:00 Düsseldorf 4 : 3 ot Norimberk 2.13 4.37 2.65
19:00 Straubing 5 : 3 Eisbaren 3.12 4.72 1.85
 Soccer Greece Super League 2018/2019
15:00 Apollon Smirnis 0 : 2 Panionios Athens 3.27 2.95 2.42
17:15 Levad Levadia 0 : 2 Atromitos Athinon FC 3.01 2.95 2.94
18:00 Aris Saloniki 2 : 0 Asteras Tripolis 2.15 3.12 3.72
19:30 Olympiakos Piraeus 0 : 1 PAOK Saloniki 1.90 3.49 4.11
 Basketball Hungary 1st League W 2018/2019
17:00 SEAT - Foton Győr 90 : 75 Vasas Csata DSE - - -
18:00 MKB Sopron 96 : 53 Ceglédi EKK - - -
 Soccer Italy Serie A 2018/2019
12:30 Bologna 2 : 1 Udinese 3.02 3.07 2.70
15:00 Frosinone 1 : 2 Genoa FC 3.50 3.30 2.17
15:00 Fiorentina 2 : 0 Atalanta Bergamo 2.30 3.44 3.09
15:00 Chievo Verona 0 : 1 AC Torino 3.66 3.31 2.22
18:00 Parma 1 : 0 Empoli AC 2.69 3.43 2.72
20:30 Sassuolo 1 : 4 Ac Milan 3.45 3.53 2.10
 Soccer Italy Serie B 2018/2019
15:00 Ascoli 0 : 0 Cremonese 2.60 3.15 3.21
15:00 Cosenza 1 : 1 Perugia 2.40 3.02 3.21
21:00 Benevento 1 : 3 Foggia 1.71 3.66 5.10
 Basketball Lithuania 1st League M 2018/2019
16:00 Lietuvos Rytas 95 : 66 Rudupis Prienu 1.15 - 4.60
16:00 Juventus-LKSK Utenos 80 : 87 Žalgiris Kaunas 8.82 - 1.03
16:20 Siauliai BC 79 : 81 Pieno zvaigzdes 1.78 - 1.92
16:20 Neptunas Klaipeda 76 : 89 Lietkabelis 1.23 - 3.65
 Soccer Netherlands Eerste Divisie 2018/2019
14:30 Twente Enschede 2 : 1 Eindhoven (Am.) 1.47 4.43 5.71
 Hockey Norway Eliteserien 2018/2019
17:00 Lillehammer 8 : 2 Ringerike IHK 1.27 7.58 6.50
 Handball Norway Eliteserien M 2018/2019
18:00 Arendal IF 35 : 32 Halden TTIF 1.24 13.00 5.19
18:00 Haslum HK 25 : 19 Bodo BHK 1.02 28.00 17.25
 Handball Poland 1.liga M 2018/2019
13:00 Chroby Glogow AMD 22 : 24 Kalisz MKS 1.51 8.61 3.10
 Hockey Poland Ekstraliga 2018/2019
17:00 Jastrzebie JKH GKS 1 : 4 Podhale Nowy Targ 1.89 4.47 2.82
17:00 Orlik Opole 1 : 5 Tychy 5.83 6.25 1.29
17:00 Katowice 4 : 1 Unia Osvětim 1.33 5.83 5.58
17:00 Stoczniowiec Gdaňsk 5 : 2 Toruň 2.12 4.52 2.45
17:00 Bytom 0 : 1 Zagłębie Sosnowiec 1.52 4.95 4.22
 Soccer Portugal Liga Sagres 2018/2019
17:00 Nacional 0 : 3 Santa Clara 1.95 3.40 3.87
19:30 Guimaraes 1 : 1 Setúbal 2.55 3.38 3.52
21:30 Belenenses 0 : 3 Braga 4.32 3.55 1.81
 Soccer Portugal Taça de Portugal 2018/2019
16:00 GRAP 2 : 4 Uniao Santiago - - -
16:00 Alverca 0 : 3 Viseu 6.11 4.55 1.42
16:00 Torres Novas 0 : 4 Maria da Fonte - - -
16:00 Vila Real 3 : 2 ot(p) Sanjoanens 3.44 3.45 1.92
16:00 Beneditense 0 : 3 Armacenenses - - -
16:00 Sacavenense 2 : 1 Varzim 3.73 3.31 1.92
16:00 Vas. De Gama De S. 0 : 1 Estoril 14.19 5.93 1.18
16:00 Portalegre 0 : 3 Farense - - -
16:00 Amora 8 : 0 Lamego - - -
16:00 Mirandes 2 : 3 Coimbroes - - -
16:00 Fafe 1 : 0 Ideal - - -
16:00 Gil Vicente 0 : 1 Chaves 1.69 3.93 4.07
16:00 Fatima 1 : 0 Oliveirense AD 3.81 3.28 1.92
16:00 Casa Pia 2 : 0 Ol 1.82 3.67 3.70
16:00 Praiense 5 : 1 Pinhalnovense 2.65 3.96 3.54
16:00 Beira Mar 0 : 1 Sao Martinho 2.53 3.59 2.34
16:00 Rio Tinto 1 : 4 Moura 2.79 3.29 2.28
16:00 Anadia 3 : 1 Aljustrelense - - -
16:00 Peniche 1 : 3 Montalegre - - -
16:00 Vila Flor 0 : 5 Amarante - - -
16:00 Merelinense 0 : 3 Madeira - - -
16:00 Trofense 2 : 3 Peňafiel 3.63 3.45 1.90
16:00 Eirense 0 : 3 Torreense - - -
16:00 Caldas 1 : 2 Gafanha 2.42 3.24 2.63
16:00 Espinho SC 1 : 0 ot(p) Sintrense - - -
16:00 Vit 1 : 3 Sertanense 2.88 3.58 2.11
16:00 Real 0 : 1 ot(p) Mirandela 2.03 3.29 3.37
16:00 Vale Formoso 0 : 3 Leiria 6.81 5.03 1.34
16:00 Pedras Salgadas 1 : 0 Coimbra 5.60 3.74 1.56
16:00 1 : 0 Famalicao 3.73 3.63 1.83
16:00 Lusitano E. 1 : 3 ot Oriental - - -
16:00 Felgueiras 2 : 0 Joane - - -
16:00 Uniao de Tomar 0 : 3 Vilafranquen - - -
16:00 Silves 2 : 1 Paredes 3.29 3.34 2.01
16:00 Condeixa 1 : 3 Ferreira 7.81 5.25 1.30
16:00 Cacadores das Taipas 0 : 1 Arouca 4.13 3.89 1.70
16:00 Santa Iria 3 : 1 Lourinhanense 1.64 3.91 4.45
16:00 Vila Silgueiros 0 : 2 Angrense - - -
16:00 Praia Milfontes 2 : 5 Valenciano - - -
16:00 Valadares Gaia 0 : 1 Louletano 3.14 3.24 2.12
16:00 Oliv. Hospital 1 : 2 ot Lusitano FCV 2.82 3.44 2.24
16:00 Limianos 2 : 1 Mafra 6.16 4.41 1.43
16:00 Loures 1 : 0 Oleiros - - -
16:00 Cesarense 1 : 2 ot Covilha 3.33 3.26 2.08
 Soccer Romania Liga II 2018/2019
10:00 Farul Constanta 1 : 0 Energeticianul 3.02 3.44 2.08
10:00 Arges Piesti 3 : 0 Luceafarul Oradea 1.38 4.47 6.60
 Hockey Slovakia Extraliga 2018/2019
17:00 Nitra 0 : 4 Liptovský Mikuláš 1.35 6.17 5.65
17:00 Zvolen 4 : 1 Banská Bystrica 2.35 4.31 2.35
17:00 Košice 5 : 1 Trenčín 1.72 4.57 3.60
17:00 Žilina 6 : 3 Budapest MAC 1.84 4.53 3.17
17:30 Miskolci JJSE 4 : 2 Nov 2.57 4.40 2.17
17:30 Detva 07 HC 0 : 3 Poprad 3.17 4.57 1.83
 Basketball Spain ACB M 2018/2019
12:30 Bruesa-Guipuzcoa BC 60 : 76 Fuenlabrada Baloncesto 1.90 14.00 2.06
12:30 Estudiantes 77 : 79 Manresa TDK 1.46 16.00 3.00
19:15 Real Madrid Teka 88 : 73 Laguna Canarias 1.11 25.00 7.20
 Soccer Spain La Liga 2018/2019
12:00 Huesca 1 : 1 Girona FC 2.38 3.39 3.72
16:15 Villarreal 0 : 1 Valladolid 1.65 4.06 6.10
18:30 Levante 2 : 1 Alavés 2.02 3.56 3.99
20:45 Betis Sevilla 1 : 0 Leganes 1.68 3.70 5.59
 Soccer Spain Liga BBVA 2018/2019
12:00 Alcorcón 2 : 0 Oviedo 1.93 3.29 5.25
16:00 Fc Malaga 1 : 0 Rayo Majadahonda 1.59 3.80 7.83
18:00 Osasuna 0 : 0 Numancia 1.81 3.34 4.82
18:00 Almeria 2 : 0 Reus 2.19 2.89 3.94
20:00 Extremadura 2 : 2 Elche FC 2.93 3.05 2.89
20:30 Gimnástico de Tarragona 1 : 3 Deportivo La Coruna 4.20 3.30 1.96
 Soccer Spain Segunda B - Group I 2018/2019
12:00 Reyes 2 : 0 Burgos Real 2.31 3.02 2.93
12:00 La Coruna B 1 : 0 Salamanca 2.52 3.07 2.63
13:00 Las Palmas B 1 : 1 Internacional de Madrid 2.35 3.09 2.82
17:00 Pontevedra CF 0 : 0 Celta Vigo B 2.35 3.12 2.91
18:00 Coruxo FC 0 : 1 Ponferradina 2.91 3.06 2.28
18:30 Guijuelo 2 : 1 Uni 2.04 3.06 3.47
19:00 Atletico Madrid B 0 : 0 Valladolid B 1.90 3.22 3.75
 Soccer Spain Segunda B - Group II 2018/2019
17:00 Santander 2 : 0 Durango 1.20 5.79 10.50
17:00 Izarra 0 : 1 Barakaldo 2.20 2.94 3.43
17:30 Mirandes 1 : 1 Gijon Sporting B 1.79 3.41 3.93
18:00 Logrones 2 : 0 Real Union 1.68 3.34 4.78
 Soccer Spain Segunda B - Group III 2018/2019
12:00 Ebro 0 : 0 Alcoyano CD 2.43 2.95 2.80
12:00 Atlético Baleares 2 : 1 Conquense 1.86 3.28 4.30
12:00 Villarreal B 4 : 1 Sabadell CE 1.83 3.18 4.07
12:00 Espaňol Barcelona B 2 : 0 Ejea 1.57 3.59 5.08
17:00 Teruel CD 0 : 0 Castellon CD 2.34 2.99 3.07
19:00 Ontinyent 0 : 0 Peralada 1.81 3.08 4.40
19:15 Cornella 0 : 2 Hercules 2.86 2.93 2.40
 Soccer Spain Segunda B - Group IV 2018/2019
11:30 Granada B 5 : 1 Melilla 2.41 3.13 3.38
12:00 Ibiza UD 1 : 0 Huelva 2.32 2.94 2.97
12:00 Don Benito CD 2 : 0 Málaga FC B 1.74 3.30 4.63
17:00 Cartagena 4 : 1 Almeria B 1.62 3.54 5.45
18:00 San Fernando 1 : 0 Badajoz 2.36 3.01 2.87
18:00 Linense 1 : 1 Sevilla Atlético 2.36 2.91 2.96
18:00 Ejido 0 : 2 Murcia Real 3.13 3.01 2.20
19:00 Marbella 2 : 1 Villanovense CF 1.96 3.05 3.70
19:00 Talavera 3 : 0 Atletico Sanluqueno 2.04 3.03 3.48
19:00 Murcia UCAM 1 : 2 Jumilla 1.71 3.31 4.56
 Hockey Sweden Allsvenskan 2018/2019
13:00 AIK Stockholm 4 : 1 Vita H 1.38 5.50 5.67
 Handball Sweden Elitserien M 2018/2019
16:00 Hammarby IF 26 : 28 Guif IF 2.13 8.33 2.12
16:00 Önnereds HK 33 : 30 Ystad HK IFK 3.13 8.94 1.54
16:15 Malmö HK IFK 31 : 30 Karlskrona IFK 1.02 28.25 20.25
 Hockey Switzerland Nationalliga A 2018/2019
15:45 Lausanne 4 : 2 Zug 2.38 4.43 2.33
 Soccer Turkey Super League 2018/2019
12:30 Sivasspor 2 : 0 Bursaspor 2.12 3.35 3.39
15:00 Göztepe 3 : 2 Kombassan Konyaspor 2.67 3.23 2.86
18:00 Caykur Rizespor 3 : 0 Fenerbahce 3.89 3.56 1.87
 Soccer Wales Premier League 2018/2019
13:45 Cardiff MU 4 : 1 Llansantffraid 8.86 5.44 1.26

Sport statistics

  • soccer, basketball, handball and icehockey statistics from more than 150 leagues (results, tables, fixtures, other usefull statistics, bookies odds etc.)
  • other useful things: comparision of teams and leagues, streaks, selections, predictions, head-to-head
  • the statistics are updated three times each day
  • RSS feeds for the upcoming matches from each sport, just click on the RSS feed in the URL field of your browser
  • archived competitions, most of them from 2003

For a detailed description of all functions and their usage check our Help page.